createdAt,value
2023-01-21T00:13:23.865Z,24.47
2023-01-21T00:14:23.840Z,24.58
2023-01-21T00:15:23.824Z,24.59
2023-01-21T00:16:23.771Z,24.52
2023-01-21T00:17:23.726Z,24.61
2023-01-21T00:18:23.707Z,24.55
2023-01-21T00:19:23.674Z,24.47
2023-01-21T00:20:23.646Z,24.59
2023-01-21T00:21:23.611Z,24.56
2023-01-21T00:22:23.605Z,24.51
2023-01-21T00:23:23.549Z,24.49
2023-01-21T00:24:23.528Z,24.42
2023-01-21T00:25:23.495Z,24.45
2023-01-21T00:26:23.452Z,24.45
2023-01-21T00:27:23.424Z,24.63
2023-01-21T00:28:23.389Z,24.63
2023-01-21T00:29:23.365Z,24.65
2023-01-21T00:30:23.342Z,24.76
2023-01-21T00:31:23.373Z,24.79
2023-01-21T00:32:23.256Z,24.83
2023-01-21T00:33:23.227Z,24.75
2023-01-21T00:34:23.190Z,24.84
2023-01-21T00:35:23.163Z,24.79
2023-01-21T00:36:23.133Z,24.76
2023-01-21T00:37:23.092Z,24.81
2023-01-21T00:38:23.063Z,24.76
2023-01-21T00:39:23.020Z,24.48
2023-01-21T00:40:23.000Z,24.79
2023-01-21T00:41:22.961Z,24.82
2023-01-21T00:42:22.924Z,24.81
2023-01-21T00:43:22.890Z,24.78
2023-01-21T00:44:22.845Z,24.67
2023-01-21T00:45:22.823Z,24.58
2023-01-21T00:46:22.799Z,24.65
2023-01-21T00:47:22.745Z,24.70
2023-01-21T00:48:22.718Z,24.73
2023-01-21T00:49:22.694Z,24.81
2023-01-21T00:50:22.656Z,24.84
2023-01-21T00:51:22.665Z,24.80
2023-01-21T00:52:22.597Z,24.91
2023-01-21T00:53:22.556Z,24.91
2023-01-21T00:54:22.532Z,25.03
2023-01-21T00:55:22.528Z,24.96
2023-01-21T00:56:22.466Z,24.95
2023-01-21T00:57:22.429Z,24.91
2023-01-21T00:58:22.404Z,24.88
2023-01-21T00:59:22.365Z,24.87
2023-01-21T01:00:22.336Z,24.86
2023-01-21T01:01:22.457Z,24.70
2023-01-21T01:02:22.346Z,24.82
2023-01-21T01:03:22.243Z,24.82
2023-01-21T01:04:22.210Z,24.79
2023-01-21T01:05:22.206Z,24.90
2023-01-21T01:06:22.186Z,24.91
2023-01-21T01:07:22.150Z,24.96
2023-01-21T01:08:22.125Z,25.08
2023-01-21T01:09:22.065Z,25.05
2023-01-21T01:10:22.040Z,24.90
2023-01-21T01:11:21.996Z,24.87
2023-01-21T01:12:21.999Z,24.83
2023-01-21T01:13:21.940Z,24.79
2023-01-21T01:14:21.904Z,24.79
2023-01-21T01:15:21.894Z,24.72
2023-01-21T01:16:21.854Z,24.56
2023-01-21T01:17:21.811Z,24.55
2023-01-21T01:18:21.788Z,24.53
2023-01-21T01:19:21.755Z,24.43
2023-01-21T01:20:21.720Z,24.37
2023-01-21T01:21:21.704Z,24.42
2023-01-21T01:22:21.661Z,24.34
2023-01-21T01:23:21.622Z,24.47
2023-01-21T01:24:21.604Z,24.47
2023-01-21T01:25:21.576Z,24.45
2023-01-21T01:26:21.555Z,24.35
2023-01-21T01:27:21.527Z,24.29
2023-01-21T01:28:21.493Z,24.34
2023-01-21T01:29:21.470Z,24.46
2023-01-21T01:30:21.443Z,24.43
2023-01-21T01:31:21.551Z,24.54
2023-01-21T01:32:21.385Z,24.61
2023-01-21T01:33:21.356Z,24.51
2023-01-21T01:34:21.323Z,24.51
2023-01-21T01:35:21.289Z,24.63
2023-01-21T01:36:21.269Z,24.41
2023-01-21T01:37:21.242Z,24.54
2023-01-21T01:38:21.245Z,24.69
2023-01-21T01:39:21.192Z,24.78
2023-01-21T01:40:21.175Z,24.64
2023-01-21T01:41:21.155Z,24.50
2023-01-21T01:42:21.135Z,24.46
2023-01-21T01:43:21.119Z,24.34
2023-01-21T01:44:21.088Z,24.34
2023-01-21T01:45:21.052Z,24.41
2023-01-21T01:46:21.052Z,24.42
2023-01-21T01:47:21.018Z,24.53
2023-01-21T01:48:21.003Z,24.50
2023-01-21T01:49:20.973Z,24.43
2023-01-21T01:50:20.941Z,24.43
2023-01-21T01:51:20.912Z,24.43
2023-01-21T01:52:20.906Z,24.40
2023-01-21T01:53:20.861Z,24.44
2023-01-21T01:54:20.840Z,24.40
2023-01-21T01:55:20.816Z,24.46
2023-01-21T01:56:20.798Z,24.38
2023-01-21T01:57:20.771Z,24.24
2023-01-21T01:58:20.753Z,24.44
2023-01-21T01:59:20.719Z,24.48
2023-01-21T02:00:20.680Z,24.56
2023-01-21T02:01:20.698Z,24.62
2023-01-21T02:02:20.640Z,24.68
2023-01-21T02:03:20.607Z,24.40
2023-01-21T02:04:20.608Z,24.41
2023-01-21T02:05:20.548Z,24.33
2023-01-21T02:06:20.521Z,24.45
2023-01-21T02:07:20.515Z,24.46
2023-01-21T02:08:20.472Z,24.47
2023-01-21T02:09:20.441Z,24.39
2023-01-21T02:10:20.428Z,24.43
2023-01-21T02:11:20.392Z,24.54
2023-01-21T02:12:20.380Z,24.61
2023-01-21T02:13:20.348Z,24.62
2023-01-21T02:14:20.311Z,24.63
2023-01-21T02:15:20.295Z,24.76
2023-01-21T02:16:20.286Z,24.52
2023-01-21T02:17:20.233Z,24.62
2023-01-21T02:18:20.214Z,24.69
2023-01-21T02:19:20.186Z,24.64
2023-01-21T02:20:20.143Z,24.59
2023-01-21T02:21:20.115Z,24.56
2023-01-21T02:22:20.104Z,24.56
2023-01-21T02:23:20.087Z,24.50
2023-01-21T02:24:20.043Z,24.51
2023-01-21T02:25:20.028Z,24.58
2023-01-21T02:26:19.996Z,24.64
2023-01-21T02:27:27.524Z,24.52
2023-01-21T02:28:20.951Z,24.46
2023-01-21T02:29:19.923Z,24.64
2023-01-21T02:30:19.890Z,24.58
2023-01-21T02:31:20.028Z,24.59
2023-01-21T02:32:19.864Z,24.62
2023-01-21T02:33:19.835Z,24.41
2023-01-21T02:34:19.801Z,24.44
2023-01-21T02:35:19.780Z,24.23
2023-01-21T02:36:19.747Z,24.38
2023-01-21T02:37:19.731Z,24.32
2023-01-21T02:38:19.708Z,24.03
2023-01-21T02:39:19.689Z,24.01
2023-01-21T02:40:19.658Z,24.25
2023-01-21T02:41:19.649Z,24.24
2023-01-21T02:42:19.613Z,24.22
2023-01-21T02:43:19.582Z,24.28
2023-01-21T02:44:19.564Z,24.33
2023-01-21T02:45:19.530Z,24.29
2023-01-21T02:46:19.553Z,24.29
2023-01-21T02:47:19.484Z,24.31
2023-01-21T02:48:19.461Z,24.35
2023-01-21T02:49:19.432Z,24.51
2023-01-21T02:50:19.410Z,24.54
2023-01-21T02:51:19.476Z,24.43
2023-01-21T02:52:19.384Z,24.28
2023-01-21T02:53:19.376Z,24.26
2023-01-21T02:54:19.319Z,24.31
2023-01-21T02:55:19.295Z,24.27
2023-01-21T02:56:19.277Z,24.26
2023-01-21T02:57:19.252Z,24.33
2023-01-21T02:58:19.227Z,24.31
2023-01-21T02:59:19.220Z,24.28
2023-01-21T03:00:19.430Z,24.26
2023-01-21T03:01:19.137Z,24.35
2023-01-21T03:02:19.153Z,24.43
2023-01-21T03:03:19.090Z,24.49
2023-01-21T03:04:19.044Z,24.64
2023-01-21T03:05:19.028Z,24.72
2023-01-21T03:06:18.988Z,24.64
2023-01-21T03:07:18.962Z,24.51
2023-01-21T03:08:18.952Z,24.48
2023-01-21T03:09:18.920Z,24.41
2023-01-21T03:10:18.865Z,24.41
2023-01-21T03:11:18.856Z,24.44
2023-01-21T03:12:18.800Z,24.42
2023-01-21T03:13:18.773Z,24.44
2023-01-21T03:14:18.781Z,24.41
2023-01-21T03:15:18.710Z,24.38
2023-01-21T03:16:18.709Z,24.31
2023-01-21T03:17:18.649Z,24.33
2023-01-21T03:18:18.613Z,24.35
2023-01-21T03:19:18.585Z,24.44
2023-01-21T03:20:18.727Z,24.44
2023-01-21T03:21:18.525Z,24.44
2023-01-21T03:22:18.483Z,24.47
2023-01-21T03:23:18.469Z,24.51
2023-01-21T03:24:18.425Z,24.52
2023-01-21T03:25:18.407Z,24.49
2023-01-21T03:26:18.376Z,24.58
2023-01-21T03:27:18.352Z,24.45
2023-01-21T03:28:18.311Z,24.49
2023-01-21T03:29:18.298Z,24.56
2023-01-21T03:30:18.645Z,24.58
2023-01-21T03:31:18.255Z,24.57
2023-01-21T03:32:18.198Z,24.66
2023-01-21T03:33:18.152Z,24.69
2023-01-21T03:34:18.118Z,24.66
2023-01-21T03:35:18.105Z,24.62
2023-01-21T03:36:18.086Z,24.60
2023-01-21T03:37:18.035Z,24.61
2023-01-21T03:38:18.016Z,24.61
2023-01-21T03:39:17.985Z,24.56
2023-01-21T03:40:18.227Z,24.61
2023-01-21T03:41:17.927Z,24.52
2023-01-21T03:42:17.893Z,24.62
2023-01-21T03:43:17.879Z,24.68
2023-01-21T03:44:18.349Z,24.71
2023-01-21T03:45:17.796Z,24.67
2023-01-21T03:46:17.764Z,24.51
2023-01-21T03:47:17.747Z,24.54
2023-01-21T03:48:17.713Z,24.64
2023-01-21T03:49:17.676Z,24.43
2023-01-21T03:50:17.961Z,24.42
2023-01-21T03:51:17.679Z,24.42
2023-01-21T03:52:17.585Z,24.45
2023-01-21T03:53:17.605Z,24.39
2023-01-21T03:54:17.537Z,24.36
2023-01-21T03:55:17.513Z,24.38
2023-01-21T03:56:17.472Z,24.43
2023-01-21T03:57:17.447Z,24.44
2023-01-21T03:58:17.412Z,24.39
2023-01-21T03:59:17.390Z,24.33
2023-01-21T04:00:17.685Z,24.32
2023-01-21T04:01:17.423Z,24.36
2023-01-21T04:02:17.325Z,24.45
2023-01-21T04:03:17.281Z,24.41
2023-01-21T04:04:17.251Z,24.45
2023-01-21T04:05:17.232Z,24.52
2023-01-21T04:06:17.203Z,24.49
2023-01-21T04:07:17.173Z,24.38
2023-01-21T04:08:17.155Z,24.30
2023-01-21T04:09:17.116Z,24.30
2023-01-21T04:10:17.351Z,24.30
2023-01-21T04:11:17.066Z,24.31
2023-01-21T04:12:17.036Z,24.26
2023-01-21T04:13:16.997Z,24.35
2023-01-21T04:14:16.992Z,24.38
2023-01-21T04:15:16.949Z,24.43
2023-01-21T04:16:16.956Z,24.41
2023-01-21T04:17:16.916Z,24.41
2023-01-21T04:18:16.866Z,24.42
2023-01-21T04:19:16.874Z,24.42
2023-01-21T04:20:17.017Z,24.35
2023-01-21T04:21:16.767Z,24.30
2023-01-21T04:22:16.740Z,24.21
2023-01-21T04:23:16.720Z,24.25
2023-01-21T04:24:16.731Z,24.27
2023-01-21T04:25:16.664Z,24.35
2023-01-21T04:26:16.658Z,24.35
2023-01-21T04:27:16.606Z,24.35
2023-01-21T04:28:16.577Z,24.30
2023-01-21T04:29:16.561Z,24.34
2023-01-21T04:30:16.754Z,24.32
2023-01-21T04:31:16.604Z,24.28
2023-01-21T04:32:16.455Z,24.40
2023-01-21T04:33:16.445Z,24.43
2023-01-21T04:34:16.419Z,24.16
2023-01-21T04:35:16.385Z,24.28
2023-01-21T04:36:16.347Z,24.41
2023-01-21T04:37:16.328Z,24.43
2023-01-21T04:38:16.290Z,24.45
2023-01-21T04:39:16.271Z,24.45
2023-01-21T04:40:16.490Z,24.43
2023-01-21T04:41:16.209Z,24.40
2023-01-21T04:42:16.190Z,24.37
2023-01-21T04:43:16.148Z,24.41
2023-01-21T04:44:16.119Z,24.31
2023-01-21T04:45:16.094Z,24.36
2023-01-21T04:46:16.132Z,24.17
2023-01-21T04:47:16.032Z,24.30
2023-01-21T04:48:16.003Z,24.36
2023-01-21T04:49:15.996Z,24.28
2023-01-21T04:50:16.258Z,24.30
2023-01-21T04:51:15.980Z,24.31
2023-01-21T04:52:15.893Z,24.10
2023-01-21T04:53:15.868Z,24.16
2023-01-21T04:54:15.831Z,24.27
2023-01-21T04:55:15.805Z,24.31
2023-01-21T04:56:15.774Z,24.24
2023-01-21T04:57:15.749Z,24.16
2023-01-21T04:58:15.724Z,24.24
2023-01-21T04:59:15.720Z,24.28
2023-01-21T05:00:16.057Z,24.25
2023-01-21T05:01:15.660Z,24.25
2023-01-21T05:02:15.645Z,24.29
2023-01-21T05:03:15.579Z,24.26
2023-01-21T05:04:15.554Z,24.27
2023-01-21T05:05:15.539Z,24.26
2023-01-21T05:06:15.509Z,24.24
2023-01-21T05:07:15.475Z,24.07
2023-01-21T05:08:15.445Z,24.22
2023-01-21T05:09:15.407Z,24.22
2023-01-21T05:10:15.668Z,24.18
2023-01-21T05:11:15.351Z,24.21
2023-01-21T05:12:15.322Z,24.27
2023-01-21T05:13:15.304Z,24.20
2023-01-21T05:14:15.262Z,24.13
2023-01-21T05:15:15.234Z,24.20
2023-01-21T05:16:15.210Z,24.27
2023-01-21T05:17:15.190Z,24.29
2023-01-21T05:18:15.171Z,24.27
2023-01-21T05:19:15.387Z,24.22
2023-01-21T05:20:15.435Z,24.12
2023-01-21T05:21:15.063Z,24.23
2023-01-21T05:22:15.030Z,24.24
2023-01-21T05:23:15.001Z,24.26
2023-01-21T05:24:14.970Z,24.25
2023-01-21T05:25:14.940Z,24.13
2023-01-21T05:26:14.976Z,24.16
2023-01-21T05:27:14.897Z,24.19
2023-01-21T05:28:14.865Z,24.23
2023-01-21T05:29:14.839Z,24.22
2023-01-21T05:30:15.222Z,24.30
2023-01-21T05:31:14.870Z,24.02
2023-01-21T05:32:14.737Z,24.15
2023-01-21T05:33:14.718Z,24.24
2023-01-21T05:34:14.701Z,24.34
2023-01-21T05:35:14.684Z,24.35
2023-01-21T05:36:14.675Z,24.24
2023-01-21T05:37:14.619Z,24.30
2023-01-21T05:38:14.590Z,24.38
2023-01-21T05:39:14.586Z,24.42
2023-01-21T05:40:14.823Z,24.41
2023-01-21T05:41:14.526Z,24.46
2023-01-21T05:42:14.543Z,24.43
2023-01-21T05:43:14.484Z,24.46
2023-01-21T05:44:17.396Z,24.44
2023-01-21T05:45:14.432Z,24.36
2023-01-21T05:46:14.477Z,24.29
2023-01-21T05:47:14.380Z,23.95
2023-01-21T05:48:14.348Z,24.02
2023-01-21T05:49:14.336Z,24.22
2023-01-21T05:50:14.415Z,24.19
2023-01-21T05:51:14.271Z,24.35
2023-01-21T05:52:14.228Z,24.44
2023-01-21T05:53:14.206Z,24.20
2023-01-21T05:54:14.183Z,24.28
2023-01-21T05:55:14.163Z,24.25
2023-01-21T05:56:14.144Z,24.30
2023-01-21T05:57:14.108Z,24.33
2023-01-21T05:58:14.080Z,24.22
2023-01-21T05:59:14.059Z,24.18
2023-01-21T06:00:14.029Z,23.95
2023-01-21T06:01:14.008Z,24.04
2023-01-21T06:02:14.013Z,24.12
2023-01-21T06:03:13.992Z,24.14
2023-01-21T06:04:13.935Z,24.17
2023-01-21T06:05:13.923Z,24.11
2023-01-21T06:06:13.884Z,24.24
2023-01-21T06:07:13.875Z,24.17
2023-01-21T06:08:13.848Z,24.12
2023-01-21T06:09:13.812Z,24.17
2023-01-21T06:10:13.781Z,24.30
2023-01-21T06:11:13.758Z,24.21
2023-01-21T06:12:13.733Z,24.12
2023-01-21T06:13:13.713Z,23.93
2023-01-21T06:14:13.680Z,24.12
2023-01-21T06:15:13.659Z,24.00
2023-01-21T06:16:13.680Z,23.88
2023-01-21T06:17:13.589Z,23.99
2023-01-21T06:18:13.565Z,24.04
2023-01-21T06:19:13.550Z,24.02
2023-01-21T06:20:13.517Z,24.08
2023-01-21T06:21:13.493Z,24.12
2023-01-21T06:22:13.462Z,24.23
2023-01-21T06:23:13.441Z,24.07
2023-01-21T06:24:13.407Z,23.95
2023-01-21T06:25:13.386Z,24.06
2023-01-21T06:26:13.359Z,23.93
2023-01-21T06:27:13.336Z,24.03
2023-01-21T06:28:13.305Z,24.06
2023-01-21T06:29:13.306Z,24.07
2023-01-21T06:30:13.248Z,24.12
2023-01-21T06:31:13.364Z,23.98
2023-01-21T06:32:13.188Z,24.11
2023-01-21T06:33:13.167Z,24.14
2023-01-21T06:34:13.164Z,24.03
2023-01-21T06:35:13.102Z,24.03
2023-01-21T06:36:13.077Z,24.13
2023-01-21T06:37:13.083Z,24.13
2023-01-21T06:38:13.030Z,24.15
2023-01-21T06:39:12.999Z,24.03
2023-01-21T06:40:12.952Z,24.07
2023-01-21T06:41:12.922Z,24.03
2023-01-21T06:42:12.892Z,24.03
2023-01-21T06:43:12.852Z,24.00
2023-01-21T06:44:12.827Z,23.91
2023-01-21T06:45:12.820Z,23.91
2023-01-21T06:46:12.894Z,24.00
2023-01-21T06:47:12.738Z,23.87
2023-01-21T06:48:12.725Z,23.91
2023-01-21T06:49:12.698Z,23.92
2023-01-21T06:50:12.669Z,23.88
2023-01-21T06:51:12.747Z,23.74
2023-01-21T06:52:12.597Z,23.89
2023-01-21T06:53:12.574Z,23.79
2023-01-21T06:54:12.559Z,23.72
2023-01-21T06:55:12.543Z,23.90
2023-01-21T06:56:12.491Z,23.94
2023-01-21T06:57:12.461Z,23.78
2023-01-21T06:58:12.444Z,23.88
2023-01-21T06:59:12.403Z,23.97
2023-01-21T07:00:12.372Z,23.99
2023-01-21T07:01:12.372Z,23.99
2023-01-21T07:02:12.334Z,23.98
2023-01-21T07:03:12.321Z,23.96
2023-01-21T07:04:12.264Z,23.91
2023-01-21T07:05:12.232Z,23.85
2023-01-21T07:06:12.219Z,24.00
2023-01-21T07:07:12.212Z,24.10
2023-01-21T07:08:12.183Z,24.01
2023-01-21T07:09:12.156Z,23.94
2023-01-21T07:10:12.148Z,23.96
2023-01-21T07:11:12.102Z,23.88
2023-01-21T07:12:12.073Z,23.97
2023-01-21T07:13:12.044Z,23.90
2023-01-21T07:14:12.012Z,23.89
2023-01-21T07:15:11.984Z,23.98
2023-01-21T07:16:12.020Z,23.98
2023-01-21T07:17:11.944Z,24.02
2023-01-21T07:18:11.913Z,24.04
2023-01-21T07:19:11.867Z,23.93
2023-01-21T07:20:11.841Z,23.97
2023-01-21T07:21:11.804Z,23.83
2023-01-21T07:22:11.794Z,23.93
2023-01-21T07:23:11.759Z,24.02
2023-01-21T07:24:11.716Z,23.99
2023-01-21T07:25:11.699Z,24.06
2023-01-21T07:26:11.657Z,23.95
2023-01-21T07:27:11.621Z,23.91
2023-01-21T07:28:11.595Z,23.88
2023-01-21T07:29:11.571Z,23.96
2023-01-21T07:30:11.538Z,23.94
2023-01-21T07:31:11.594Z,23.96
2023-01-21T07:32:11.494Z,24.01
2023-01-21T07:33:11.459Z,23.96
2023-01-21T07:34:11.431Z,23.88
2023-01-21T07:35:11.397Z,23.88
2023-01-21T07:36:11.380Z,23.90
2023-01-21T07:37:11.351Z,23.94
2023-01-21T07:38:11.322Z,23.92
2023-01-21T07:39:11.303Z,23.76
2023-01-21T07:40:11.277Z,23.82
2023-01-21T07:41:11.243Z,23.83
2023-01-21T07:42:11.224Z,23.80
2023-01-21T07:43:11.200Z,23.93
2023-01-21T07:44:11.176Z,23.89
2023-01-21T07:45:11.149Z,23.87
2023-01-21T07:46:11.219Z,23.84
2023-01-21T07:47:11.110Z,23.86
2023-01-21T07:48:11.085Z,23.86
2023-01-21T07:49:11.044Z,23.89
2023-01-21T07:50:11.022Z,23.86
2023-01-21T07:51:11.002Z,23.84
2023-01-21T07:52:10.979Z,23.87
2023-01-21T07:53:10.958Z,23.86
2023-01-21T07:54:10.935Z,23.67
2023-01-21T07:55:14.095Z,23.76
2023-01-21T07:56:10.885Z,23.89
2023-01-21T07:57:10.859Z,23.86
2023-01-21T07:58:10.835Z,23.86
2023-01-21T07:59:10.818Z,23.79
2023-01-21T08:00:10.793Z,23.76
2023-01-21T08:01:10.762Z,23.62
2023-01-21T08:02:10.857Z,23.62
2023-01-21T08:03:10.703Z,23.76
2023-01-21T08:04:10.691Z,23.74
2023-01-21T08:05:10.668Z,23.70
2023-01-21T08:06:10.634Z,23.73
2023-01-21T08:07:13.063Z,23.64
2023-01-21T08:08:10.798Z,23.67
2023-01-21T08:09:10.772Z,23.67
2023-01-21T08:10:10.747Z,23.68
2023-01-21T08:11:10.715Z,23.69
2023-01-21T08:12:10.700Z,23.68
2023-01-21T08:13:10.665Z,23.71
2023-01-21T08:14:10.645Z,23.71
2023-01-21T08:15:10.620Z,23.69
2023-01-21T08:16:10.632Z,23.75
2023-01-21T08:17:10.564Z,24.06
2023-01-21T08:18:10.556Z,24.09
2023-01-21T08:19:12.580Z,24.18
2023-01-21T08:20:10.488Z,24.50
2023-01-21T08:21:10.453Z,24.28
2023-01-21T08:22:10.424Z,24.57
2023-01-21T08:23:10.403Z,24.62
2023-01-21T08:24:10.381Z,24.61
2023-01-21T08:25:10.348Z,24.61
2023-01-21T08:26:10.319Z,24.65
2023-01-21T08:27:10.316Z,24.63
2023-01-21T08:28:10.267Z,24.62
2023-01-21T08:29:10.244Z,24.56
2023-01-21T08:30:10.216Z,24.54
2023-01-21T08:31:10.384Z,24.55
2023-01-21T08:32:10.305Z,24.50
2023-01-21T08:33:10.173Z,24.46
2023-01-21T08:34:10.105Z,24.45
2023-01-21T08:35:10.081Z,24.43
2023-01-21T08:36:10.062Z,24.48
2023-01-21T08:37:10.019Z,24.43
2023-01-21T08:38:10.076Z,24.40
2023-01-21T08:39:10.486Z,24.36
2023-01-21T08:40:09.962Z,24.32
2023-01-21T08:41:09.921Z,24.29
2023-01-21T08:42:09.915Z,24.25
2023-01-21T08:43:09.883Z,24.21
2023-01-21T08:44:09.859Z,24.16
2023-01-21T08:45:09.825Z,24.12
2023-01-21T08:46:09.808Z,24.04
2023-01-21T08:47:09.778Z,23.99
2023-01-21T08:48:09.744Z,23.95
2023-01-21T08:49:09.717Z,23.91
2023-01-21T08:50:09.721Z,23.86
2023-01-21T08:51:09.699Z,23.82
2023-01-21T08:52:09.618Z,23.80
2023-01-21T08:53:09.600Z,23.78
2023-01-21T08:54:09.568Z,23.76
2023-01-21T08:55:09.522Z,23.73
2023-01-21T08:56:09.497Z,23.70
2023-01-21T08:57:09.503Z,23.67
2023-01-21T08:58:09.436Z,23.60
2023-01-21T08:59:09.445Z,23.59
2023-01-21T09:00:09.377Z,23.54
2023-01-21T09:01:09.415Z,23.50
2023-01-21T09:02:09.333Z,23.49
2023-01-21T09:03:09.276Z,23.49
2023-01-21T09:04:09.275Z,23.46
2023-01-21T09:05:09.218Z,23.45
2023-01-21T09:06:09.190Z,23.41
2023-01-21T09:07:09.152Z,23.38
2023-01-21T09:08:09.123Z,23.42
2023-01-21T09:09:09.148Z,23.41
2023-01-21T09:10:09.061Z,23.41
2023-01-21T09:11:09.039Z,23.39
2023-01-21T09:12:09.012Z,23.38
2023-01-21T09:13:08.969Z,23.37
2023-01-21T09:14:08.947Z,23.36
2023-01-21T09:15:08.897Z,23.38
2023-01-21T10:56:05.722Z,24.26
2023-01-21T10:57:05.683Z,24.28
2023-01-21T10:58:05.650Z,24.28
2023-01-21T10:59:05.614Z,24.30
2023-01-21T11:00:05.581Z,24.27
2023-01-21T11:01:05.562Z,24.27
2023-01-21T11:02:05.515Z,24.28
2023-01-21T11:03:05.484Z,24.28
2023-01-21T11:04:05.431Z,24.29
2023-01-21T11:05:05.405Z,24.30
2023-01-21T11:06:05.386Z,24.31
2023-01-21T11:07:05.338Z,24.32
2023-01-21T11:08:05.297Z,24.32
2023-01-21T11:09:05.374Z,24.33
2023-01-21T11:10:05.240Z,24.34
2023-01-21T11:11:05.201Z,24.34
2023-01-21T11:12:05.163Z,24.37
2023-01-21T11:13:05.120Z,24.37
2023-01-21T11:14:05.089Z,24.37
2023-01-21T11:15:05.060Z,24.38
2023-01-21T11:16:05.047Z,24.39
2023-01-21T11:17:04.981Z,24.38
2023-01-21T11:18:04.936Z,24.39
2023-01-21T11:19:04.900Z,24.40
2023-01-21T11:20:04.888Z,24.40
2023-01-21T11:21:04.842Z,24.39
2023-01-21T11:22:04.797Z,24.42
2023-01-21T11:23:04.766Z,24.39
2023-01-21T11:24:04.743Z,24.40
2023-01-21T11:25:04.695Z,24.42
2023-01-21T11:26:04.678Z,24.42
2023-01-21T11:27:04.658Z,24.42
2023-01-21T11:28:04.593Z,24.42
2023-01-21T11:29:06.869Z,24.42
2023-01-21T11:30:13.013Z,24.40
2023-01-21T11:31:05.559Z,24.42
2023-01-21T11:32:04.613Z,24.40
2023-01-21T11:33:04.442Z,24.41
2023-01-21T11:34:04.380Z,24.42
2023-01-21T11:35:04.339Z,24.41
2023-01-21T11:36:04.304Z,24.43
2023-01-21T11:37:04.282Z,24.44
2023-01-21T11:38:04.238Z,24.44
2023-01-21T11:39:04.249Z,24.44
2023-01-21T11:40:04.196Z,24.45
2023-01-21T11:41:04.133Z,24.44
2023-01-21T11:42:04.128Z,24.44
2023-01-21T11:43:04.056Z,24.45
2023-01-21T11:44:04.019Z,24.45
2023-01-21T11:45:03.985Z,24.45
2023-01-21T11:46:03.960Z,24.48
2023-01-21T11:47:03.920Z,24.48
2023-01-21T11:48:03.888Z,24.47
2023-01-21T11:49:03.870Z,24.51
2023-01-21T11:50:03.824Z,24.51
2023-01-21T11:51:03.805Z,24.53
2023-01-21T11:52:03.744Z,24.54
2023-01-21T11:53:03.723Z,24.55
2023-01-21T11:54:03.676Z,24.54
2023-01-21T11:55:03.633Z,24.55
2023-01-21T11:56:03.601Z,24.58
2023-01-21T11:57:03.591Z,24.57
2023-01-21T11:58:03.534Z,24.59
2023-01-21T11:59:03.500Z,24.57
2023-01-21T12:00:03.472Z,24.58
2023-01-21T12:01:03.432Z,24.61
2023-01-21T12:02:03.403Z,24.60
2023-01-21T12:03:03.397Z,24.61
2023-01-21T12:04:03.366Z,24.63
2023-01-21T12:05:03.304Z,24.65
2023-01-21T12:06:03.271Z,24.65
2023-01-21T12:07:03.270Z,24.62
2023-01-21T12:08:03.202Z,24.65
2023-01-21T12:09:03.180Z,24.65
2023-01-21T12:10:03.150Z,24.67
2023-01-21T12:11:03.109Z,24.67
2023-01-21T12:12:03.078Z,24.71
2023-01-21T12:13:03.052Z,24.70
2023-01-21T12:14:03.013Z,24.73
2023-01-21T12:15:02.986Z,24.75
2023-01-21T12:16:03.011Z,24.75
2023-01-21T12:17:02.927Z,24.78
2023-01-21T12:18:02.896Z,24.76
2023-01-21T12:19:02.858Z,24.81
2023-01-21T12:20:02.833Z,24.81
2023-01-21T12:21:02.788Z,24.82
2023-01-21T12:22:02.762Z,24.84
2023-01-21T12:23:02.748Z,24.85
2023-01-21T12:24:02.691Z,24.86
2023-01-21T12:25:02.665Z,24.89
2023-01-21T12:26:02.641Z,24.89
2023-01-21T12:27:02.604Z,24.88
2023-01-21T12:28:02.565Z,24.91
2023-01-21T12:29:02.563Z,24.93
2023-01-21T12:30:02.500Z,24.94
2023-01-21T12:31:02.541Z,24.94
2023-01-21T12:32:02.526Z,24.95
2023-01-21T12:33:02.424Z,24.97
2023-01-21T12:34:02.411Z,24.99
2023-01-21T12:35:02.356Z,24.99
2023-01-21T12:36:02.327Z,25.00
2023-01-21T12:37:02.295Z,25.00
2023-01-21T12:38:02.269Z,25.02
2023-01-21T12:39:02.234Z,25.01
2023-01-21T12:40:02.205Z,25.02
2023-01-21T12:41:02.191Z,25.03
2023-01-21T12:42:02.129Z,25.04
2023-01-21T12:43:02.102Z,25.03
2023-01-21T12:44:02.071Z,25.06
2023-01-21T12:45:02.038Z,25.07
2023-01-21T12:46:02.006Z,25.06
2023-01-21T12:47:02.029Z,25.07
2023-01-21T12:48:01.937Z,25.07
2023-01-21T12:49:02.197Z,25.08
2023-01-21T12:50:01.846Z,25.09
2023-01-21T12:51:01.837Z,25.11
2023-01-21T12:52:01.795Z,25.11
2023-01-21T12:53:01.771Z,25.11
2023-01-21T12:54:01.713Z,25.13
2023-01-21T12:55:01.685Z,25.15
2023-01-21T12:56:01.654Z,25.18
2023-01-21T12:57:01.641Z,25.18
2023-01-21T12:58:01.590Z,25.17
2023-01-21T12:59:01.563Z,25.18
2023-01-21T13:00:01.530Z,25.21
2023-01-21T13:01:01.601Z,25.20
2023-01-21T13:02:01.529Z,25.24
2023-01-21T13:03:01.406Z,25.24
2023-01-21T13:04:01.366Z,25.26
2023-01-21T13:05:01.344Z,25.26
2023-01-21T13:06:01.304Z,25.26
2023-01-21T13:07:01.272Z,25.28
2023-01-21T13:08:01.232Z,25.27
2023-01-21T13:09:01.196Z,25.29
2023-01-21T13:10:01.147Z,25.31
2023-01-21T13:11:01.114Z,25.31
2023-01-21T13:12:01.082Z,25.34
2023-01-21T13:13:01.040Z,25.33
2023-01-21T13:14:01.008Z,25.34
2023-01-21T13:15:00.967Z,25.35
2023-01-21T13:16:00.960Z,25.35
2023-01-21T13:17:00.914Z,25.37
2023-01-21T13:18:00.908Z,25.37
2023-01-21T13:19:00.861Z,25.39
2023-01-21T13:20:00.797Z,25.39
2023-01-21T13:21:00.773Z,25.39
2023-01-21T13:22:00.729Z,25.40
2023-01-21T13:23:00.703Z,25.40
2023-01-21T13:24:00.659Z,25.41
2023-01-21T13:25:00.643Z,25.42
2023-01-21T13:26:00.581Z,25.42
2023-01-21T13:27:00.543Z,25.42
2023-01-21T13:28:00.525Z,25.45
2023-01-21T13:29:00.483Z,25.43
2023-01-21T13:30:00.472Z,25.46
2023-01-21T13:31:00.484Z,25.45
2023-01-21T13:32:00.438Z,25.44
2023-01-21T13:33:00.352Z,25.46
2023-01-21T13:34:00.341Z,25.46
2023-01-21T13:35:00.290Z,25.49
2023-01-21T13:36:00.250Z,25.50
2023-01-21T13:37:00.203Z,25.47
2023-01-21T13:38:00.184Z,25.50
2023-01-21T13:39:00.147Z,25.50
2023-01-21T13:40:00.141Z,25.52
2023-01-21T13:41:00.097Z,25.52
2023-01-21T13:42:00.032Z,25.52
2023-01-21T13:42:59.993Z,25.53
2023-01-21T13:43:59.960Z,25.55
2023-01-21T13:44:59.933Z,25.53
2023-01-21T13:46:00.026Z,25.54
2023-01-21T13:46:59.865Z,25.54
2023-01-21T13:47:59.827Z,25.56
2023-01-21T13:48:59.799Z,25.56
2023-01-21T13:49:59.764Z,25.56
2023-01-21T13:50:59.821Z,25.54
2023-01-21T13:51:59.699Z,25.59
2023-01-21T13:52:59.667Z,25.58
2023-01-21T13:53:59.629Z,25.60
2023-01-21T13:54:59.600Z,25.58
2023-01-21T13:55:59.554Z,25.61
2023-01-21T13:56:59.532Z,25.61
2023-01-21T13:58:02.256Z,25.60
2023-01-21T13:58:59.487Z,25.62
2023-01-21T13:59:59.437Z,25.62
2023-01-21T14:00:59.432Z,25.63
2023-01-21T14:01:59.420Z,25.65
2023-01-21T14:02:59.341Z,25.65
2023-01-21T14:04:01.387Z,25.64
2023-01-21T14:04:59.279Z,25.68
2023-01-21T14:05:59.257Z,25.67
2023-01-21T14:06:59.226Z,25.71
2023-01-21T14:07:59.196Z,25.70
2023-01-21T14:08:59.180Z,25.70
2023-01-21T14:09:59.130Z,25.70
2023-01-21T14:10:59.109Z,25.72
2023-01-21T14:11:59.085Z,25.71
2023-01-21T14:12:59.042Z,25.71
2023-01-21T14:13:59.044Z,25.74
2023-01-21T14:14:58.973Z,25.73
2023-01-21T14:16:00.610Z,25.73
2023-01-21T14:16:58.921Z,25.75
2023-01-21T14:17:58.876Z,25.74
2023-01-21T14:18:58.841Z,25.76
2023-01-21T14:19:58.802Z,25.76
2023-01-21T14:20:58.779Z,25.77
2023-01-21T14:21:58.740Z,25.77
2023-01-21T14:22:58.704Z,25.78
2023-01-21T14:23:58.697Z,25.78
2023-01-21T14:24:58.634Z,25.79
2023-01-21T14:25:58.601Z,25.80
2023-01-21T14:26:58.568Z,25.81
2023-01-21T14:27:58.553Z,25.80
2023-01-21T14:28:58.513Z,25.79
2023-01-21T14:29:58.453Z,25.80
2023-01-21T14:30:58.451Z,25.82
2023-01-21T14:31:58.427Z,25.84
2023-01-21T14:32:58.371Z,25.82
2023-01-21T14:33:58.340Z,25.84
2023-01-21T14:34:58.316Z,25.86
2023-01-21T14:35:58.254Z,25.86
2023-01-21T14:36:58.221Z,25.85
2023-01-21T14:37:58.188Z,25.86
2023-01-21T14:38:58.159Z,25.87
2023-01-21T14:39:58.131Z,25.90
2023-01-21T14:40:58.092Z,25.88
2023-01-21T14:41:58.071Z,25.92
2023-01-21T14:42:58.034Z,25.92
2023-01-21T14:43:58.018Z,25.92
2023-01-21T14:44:57.978Z,25.91